Terminal Aerodrome Forecast
Issued by NWS Mobile, AL

Home | Current Version | Previous Version | Text Only | Print | Product List | Glossary On
Versions: 1 2 3 4 5 6 7 8 9 10 11 12
000
FTUS44 KMOB 262332
TAFPNS
TAF
KPNS 262332Z 2700/2724 15014KT P6SM OVC026
     FM270200 16016KT 5SM BR VCSH OVC007
     FM271200 19016G22KT 2SM BR OVC003
     FM271500 VRB15KT 3SM TSRA BKN007CB
     FM271800 20015G22KT P6SM OVC015=

USA.gov is the U.S. government's official web portal to all federal, state and local government web resources and services.